Time;durP1;ratioP1;P1;durP2;ratioP2;P2;SDS_P1;SDS_P2;PMS_P1;PMS_P2;Temp;Humidity;BMP_temperature;BMP_pressure;BME280_temperature;BME280_humidity;BME280_pressure;Samples;Min_cycle;Max_cycle;Signal;HPM_P1;HPM_P2
2020/12/15 00:01:03;;;;;;;5.03;3.35;;;;;;;;;;5093787;28;20470;-59
2020/12/15 00:03:29;;;;;;;4.63;3.50;;;;;;;;;;5093058;28;20031;-57
2020/12/15 00:05:54;;;;;;;4.18;3.38;;;;;;;;;;5094239;28;20051;-57
2020/12/15 00:08:20;;;;;;;5.75;4.22;;;;;;;;;;5090196;28;20518;-58
2020/12/15 00:10:45;;;;;;;6.57;4.22;;;;;;;;;;5091930;28;20024;-59
2020/12/15 00:13:11;;;;;;;7.38;3.97;;;;;;;;;;5093500;28;20027;-56
2020/12/15 00:15:36;;;;;;;5.90;4.15;;;;;;;;;;5093940;28;20497;-58
2020/12/15 00:18:01;;;;;;;6.28;4.38;;;;;;;;;;5092695;28;20030;-57
2020/12/15 00:20:27;;;;;;;5.78;4.35;;;;;;;;;;5090596;28;20020;-59
2020/12/15 00:22:52;;;;;;;5.80;4.18;;;;;;;;;;5093737;28;20345;-57
2020/12/15 00:25:18;;;;;;;6.05;4.18;;;;;;;;;;5093575;28;20500;-56
2020/12/15 00:27:46;;;;;;;6.15;4.07;;;;;;;;;;5092902;28;20027;-58
2020/12/15 00:30:11;;;;;;;8.38;4.78;;;;;;;;;;5090401;28;20105;-58
2020/12/15 00:32:37;;;;;;;8.20;4.47;;;;;;;;;;5093817;28;20107;-56
2020/12/15 00:35:02;;;;;;;4.40;4.00;;;;;;;;;;5091780;28;20016;-57
2020/12/15 00:37:27;;;;;;;5.95;4.38;;;;;;;;;;5092914;28;20008;-59
2020/12/15 00:39:52;;;;;;;7.28;4.57;;;;;;;;;;5090563;28;20020;-57
2020/12/15 00:42:18;;;;;;;6.57;4.75;;;;;;;;;;5093343;28;20016;-56
2020/12/15 00:44:43;;;;;;;7.13;4.38;;;;;;;;;;5093356;28;20024;-58
2020/12/15 00:47:08;;;;;;;6.55;4.38;;;;;;;;;;5093063;28;20087;-56
2020/12/15 00:49:33;;;;;;;5.18;3.92;;;;;;;;;;5089810;28;20530;-58
2020/12/15 00:51:58;;;;;;;5.68;4.10;;;;;;;;;;5092873;28;20474;-58
2020/12/15 00:54:24;;;;;;;4.32;3.65;;;;;;;;;;5092624;28;20512;-58
2020/12/15 00:56:49;;;;;;;5.45;3.90;;;;;;;;;;5086748;28;20123;-59
2020/12/15 00:59:14;;;;;;;4.75;4.05;;;;;;;;;;5089735;28;20035;-58
2020/12/15 01:01:39;;;;;;;5.15;3.72;;;;;;;;;;5092515;28;20124;-58
2020/12/15 01:04:04;;;;;;;3.83;3.33;;;;;;;;;;5092666;28;20068;-57
2020/12/15 01:06:30;;;;;;;4.32;3.17;;;;;;;;;;5092396;28;20042;-59
2020/12/15 01:08:55;;;;;;;4.28;3.33;;;;;;;;;;5089230;28;20497;-57
2020/12/15 01:11:25;;;;;;;5.90;4.10;;;;;;;;;;5092887;28;20031;-58
2020/12/15 01:13:50;;;;;;;6.85;4.60;;;;;;;;;;5092979;28;20028;-56
2020/12/15 01:16:16;;;;;;;5.60;4.32;;;;;;;;;;5092531;28;20266;-58
2020/12/15 01:18:41;;;;;;;5.38;3.45;;;;;;;;;;5089024;28;20020;-58
2020/12/15 01:21:06;;;;;;;4.38;3.45;;;;;;;;;;5092766;28;20012;-57
2020/12/15 01:23:31;;;;;;;5.50;4.05;;;;;;;;;;5092202;28;20118;-57
2020/12/15 01:25:57;;;;;;;4.97;3.88;;;;;;;;;;5092181;28;20024;-59
2020/12/15 01:28:22;;;;;;;4.88;3.95;;;;;;;;;;5088803;28;20403;-56
2020/12/15 01:30:47;;;;;;;6.45;4.40;;;;;;;;;;5092229;28;20055;-53
2020/12/15 01:33:13;;;;;;;3.92;3.50;;;;;;;;;;5080583;28;20020;-59
2020/12/15 01:35:38;;;;;;;6.00;4.38;;;;;;;;;;5092502;28;20477;-57
2020/12/15 01:38:03;;;;;;;5.85;4.30;;;;;;;;;;5088483;28;20016;-57
2020/12/15 01:40:28;;;;;;;5.63;4.30;;;;;;;;;;5074962;28;20024;-56
2020/12/15 01:42:54;;;;;;;6.65;4.78;;;;;;;;;;5092648;28;20024;-58
2020/12/15 01:45:20;;;;;;;5.82;5.18;;;;;;;;;;5092456;28;20470;-58
2020/12/15 01:47:45;;;;;;;8.13;5.25;;;;;;;;;;5091106;28;20051;-56
2020/12/15 01:50:11;;;;;;;6.43;5.38;;;;;;;;;;5088887;28;20466;-59
2020/12/15 01:52:36;;;;;;;7.00;5.40;;;;;;;;;;5090433;28;20032;-57
2020/12/15 01:55:01;;;;;;;7.38;6.05;;;;;;;;;;5091601;28;20023;-59
2020/12/15 01:57:26;;;;;;;7.47;5.63;;;;;;;;;;5091496;28;20424;-58
2020/12/15 01:59:52;;;;;;;8.60;6.20;;;;;;;;;;5089258;28;20478;-57
2020/12/15 02:02:19;;;;;;;9.05;5.95;;;;;;;;;;5090580;28;20019;-53
2020/12/15 02:04:45;;;;;;;7.90;5.75;;;;;;;;;;5092323;28;20013;-58
2020/12/15 02:07:10;;;;;;;8.30;5.78;;;;;;;;;;5090850;28;20020;-56
2020/12/15 02:09:36;;;;;;;7.65;5.10;;;;;;;;;;5089228;28;20089;-58
2020/12/15 02:12:02;;;;;;;7.55;5.68;;;;;;;;;;5091766;28;20490;-58
2020/12/15 02:14:27;;;;;;;9.23;6.00;;;;;;;;;;5092146;28;20317;-55
2020/12/15 02:16:53;;;;;;;9.35;6.05;;;;;;;;;;5091603;28;20108;-57
2020/12/15 02:19:18;;;;;;;8.35;5.70;;;;;;;;;;5088796;28;20355;-57
2020/12/15 02:21:56;;;;;;;7.65;5.40;;;;;;;;;;5091994;28;20016;-58
2020/12/15 02:24:22;;;;;;;7.03;5.45;;;;;;;;;;5091660;28;20059;-55
2020/12/15 02:26:47;;;;;;;6.47;5.03;;;;;;;;;;5089761;28;20036;-57
2020/12/15 02:29:12;;;;;;;7.53;5.28;;;;;;;;;;5088148;28;20052;-58
2020/12/15 02:31:38;;;;;;;7.45;5.30;;;;;;;;;;5088257;28;20020;-56
2020/12/15 02:34:03;;;;;;;7.97;5.57;;;;;;;;;;5091722;28;20068;-57
2020/12/15 02:36:29;;;;;;;9.00;5.95;;;;;;;;;;5092009;28;20020;-58
2020/12/15 02:39:01;;;;;;;8.18;5.93;;;;;;;;;;5086000;28;20040;-57
2020/12/15 02:41:26;;;;;;;9.32;6.63;;;;;;;;;;5091712;28;20068;-56
2020/12/15 02:43:51;;;;;;;8.35;6.32;;;;;;;;;;5091855;28;20016;-58
2020/12/15 02:46:16;;;;;;;9.98;7.38;;;;;;;;;;5091905;28;20027;-57
2020/12/15 02:48:41;;;;;;;10.25;7.10;;;;;;;;;;5088115;28;20389;-57
2020/12/15 02:51:07;;;;;;;8.73;6.63;;;;;;;;;;5091661;28;20024;-57
2020/12/15 02:53:32;;;;;;;10.25;7.07;;;;;;;;;;5091542;28;20448;-57
2020/12/15 02:55:57;;;;;;;10.45;7.53;;;;;;;;;;5090447;28;20047;-58
2020/12/15 02:58:22;;;;;;;10.80;7.35;;;;;;;;;;5079493;28;20402;-58
2020/12/15 03:00:47;;;;;;;10.45;7.28;;;;;;;;;;5094848;28;20509;-57
2020/12/15 03:03:13;;;;;;;10.95;7.18;;;;;;;;;;5095182;28;20115;-57
2020/12/15 03:05:38;;;;;;;9.73;7.05;;;;;;;;;;5095015;28;20103;-55
2020/12/15 03:08:03;;;;;;;12.40;8.07;;;;;;;;;;5091973;28;20022;-55
2020/12/15 03:10:28;;;;;;;9.50;6.60;;;;;;;;;;5092976;28;20049;-57
2020/12/15 03:12:53;;;;;;;10.73;7.32;;;;;;;;;;5094984;28;20028;-56
2020/12/15 03:15:19;;;;;;;11.50;8.38;;;;;;;;;;5094903;28;20028;-58
2020/12/15 03:17:44;;;;;;;11.32;8.35;;;;;;;;;;5094318;28;20040;-55
2020/12/15 03:20:09;;;;;;;10.50;7.35;;;;;;;;;;5090734;28;20466;-58
2020/12/15 03:22:34;;;;;;;10.95;8.07;;;;;;;;;;5093155;28;20016;-56
2020/12/15 03:25:00;;;;;;;12.45;9.43;;;;;;;;;;5094705;28;20012;-58
2020/12/15 03:27:25;;;;;;;12.55;8.60;;;;;;;;;;5094580;28;20016;-58
2020/12/15 03:29:50;;;;;;;11.43;8.55;;;;;;;;;;5091577;28;20466;-59
2020/12/15 03:32:15;;;;;;;13.25;9.02;;;;;;;;;;5093183;28;20016;-57
2020/12/15 03:34:40;;;;;;;12.48;8.63;;;;;;;;;;5094932;28;20153;-57
2020/12/15 03:37:06;;;;;;;12.77;9.13;;;;;;;;;;5093419;28;20111;-56
2020/12/15 03:39:31;;;;;;;13.32;9.40;;;;;;;;;;5089429;28;20130;-57
2020/12/15 03:41:56;;;;;;;12.05;8.43;;;;;;;;;;5092000;28;20012;-56
2020/12/15 03:44:23;;;;;;;12.65;8.85;;;;;;;;;;5093498;28;20095;-57
2020/12/15 03:46:48;;;;;;;11.80;8.07;;;;;;;;;;5094560;28;20112;-56
2020/12/15 03:49:13;;;;;;;11.80;8.75;;;;;;;;;;5091869;28;20055;-57
2020/12/15 03:51:38;;;;;;;11.30;7.80;;;;;;;;;;5093942;28;20473;-57
2020/12/15 03:54:04;;;;;;;10.52;7.97;;;;;;;;;;5094193;28;20590;-57
2020/12/15 03:56:29;;;;;;;11.50;7.97;;;;;;;;;;5094460;28;20016;-56
2020/12/15 03:58:54;;;;;;;9.38;7.45;;;;;;;;;;5091536;28;20106;-55
2020/12/15 04:01:19;;;;;;;9.55;6.95;;;;;;;;;;5094121;28;20051;-57
2020/12/15 04:03:45;;;;;;;11.07;7.03;;;;;;;;;;5092944;28;20111;-57
2020/12/15 04:06:10;;;;;;;10.20;6.63;;;;;;;;;;5094282;28;20026;-55
2020/12/15 04:08:35;;;;;;;8.60;6.60;;;;;;;;;;5091048;28;20016;-55
2020/12/15 04:11:00;;;;;;;12.27;7.30;;;;;;;;;;5093052;28;20475;-55
2020/12/15 04:13:26;;;;;;;9.73;7.20;;;;;;;;;;5094291;28;20485;-56
2020/12/15 04:15:51;;;;;;;10.48;7.68;;;;;;;;;;5094008;28;20538;-57
2020/12/15 04:18:16;;;;;;;10.00;7.50;;;;;;;;;;5091263;28;20661;-53
2020/12/15 04:20:41;;;;;;;10.57;7.20;;;;;;;;;;5093354;28;20554;-56
2020/12/15 04:23:07;;;;;;;10.90;7.33;;;;;;;;;;5093572;28;20088;-55
2020/12/15 04:25:35;;;;;;;10.98;7.95;;;;;;;;;;5093855;28;20099;-57
2020/12/15 04:28:00;;;;;;;10.20;7.80;;;;;;;;;;5091780;28;20120;-59
2020/12/15 04:30:25;;;;;;;10.57;8.00;;;;;;;;;;5092270;28;20423;-56
2020/12/15 04:32:51;;;;;;;10.45;7.38;;;;;;;;;;5093290;28;20027;-59
2020/12/15 04:35:16;;;;;;;11.07;8.27;;;;;;;;;;5093092;28;20039;-58
2020/12/15 04:37:41;;;;;;;12.13;8.10;;;;;;;;;;5092645;28;20027;-57
2020/12/15 04:40:06;;;;;;;11.03;7.57;;;;;;;;;;5091019;28;20035;-57
2020/12/15 04:42:33;;;;;;;11.88;7.63;;;;;;;;;;5093736;28;20371;-58
2020/12/15 04:44:58;;;;;;;9.88;7.00;;;;;;;;;;5092437;28;20032;-59
2020/12/15 04:47:33;;;;;;;11.70;7.68;;;;;;;;;;5092533;28;20020;-55
2020/12/15 04:50:00;;;;;;;10.07;7.18;;;;;;;;;;5090498;28;20107;-59
2020/12/15 04:52:33;;;;;;;10.70;7.25;;;;;;;;;;5091925;28;20042;-59
2020/12/15 04:54:59;;;;;;;9.50;6.68;;;;;;;;;;5093203;28;20012;-58
2020/12/15 04:57:25;;;;;;;10.65;6.82;;;;;;;;;;5092114;28;20051;-59
2020/12/15 04:59:51;;;;;;;9.98;7.43;;;;;;;;;;5090276;28;20450;-58
2020/12/15 05:02:18;;;;;;;10.25;6.95;;;;;;;;;;5092819;28;20055;-58
2020/12/15 05:04:43;;;;;;;11.65;7.07;;;;;;;;;;5092736;28;20040;-58
2020/12/15 05:07:09;;;;;;;10.25;6.65;;;;;;;;;;5092532;28;20063;-57
2020/12/15 05:09:35;;;;;;;8.63;6.30;;;;;;;;;;5090295;28;20027;-56
2020/12/15 05:12:00;;;;;;;9.65;7.78;;;;;;;;;;5092847;28;20363;-56
2020/12/15 05:14:26;;;;;;;10.48;6.95;;;;;;;;;;5092497;28;20039;-59
2020/12/15 05:16:52;;;;;;;10.97;7.30;;;;;;;;;;5091786;28;20023;-58
2020/12/15 05:19:17;;;;;;;9.52;6.82;;;;;;;;;;5089689;28;20024;-57
2020/12/15 05:22:01;;;;;;;10.13;7.68;;;;;;;;;;5092748;28;20469;-58
2020/12/15 05:24:30;;;;;;;11.40;8.82;;;;;;;;;;5091125;28;20410;-61
2020/12/15 05:26:56;;;;;;;12.10;7.35;;;;;;;;;;5090302;28;20102;-59
2020/12/15 05:29:21;;;;;;;12.07;8.30;;;;;;;;;;5089876;28;20474;-57
2020/12/15 05:31:46;;;;;;;11.40;8.67;;;;;;;;;;5092321;28;20418;-58
2020/12/15 05:34:20;;;;;;;11.07;7.60;;;;;;;;;;5091182;28;20031;-59
2020/12/15 05:36:52;;;;;;;11.77;8.50;;;;;;;;;;5091058;28;20036;-58
2020/12/15 05:39:18;;;;;;;13.00;8.23;;;;;;;;;;5079707;28;20070;-57
2020/12/15 05:41:43;;;;;;;12.17;7.70;;;;;;;;;;5092183;28;20012;-56
2020/12/15 05:44:08;;;;;;;11.20;7.63;;;;;;;;;;5084243;28;20073;-57
2020/12/15 05:46:36;;;;;;;12.00;8.57;;;;;;;;;;5091768;28;20550;-57
2020/12/15 05:49:02;;;;;;;12.77;7.70;;;;;;;;;;5089264;28;20020;-57
2020/12/15 05:51:56;;;;;;;10.03;7.83;;;;;;;;;;5081341;28;20459;-57
2020/12/15 05:54:22;;;;;;;9.43;7.27;;;;;;;;;;5074685;28;20115;-57
2020/12/15 05:56:58;;;;;;;10.17;7.17;;;;;;;;;;5092344;28;20112;-58
2020/12/15 05:59:24;;;;;;;10.70;7.80;;;;;;;;;;5085050;28;20044;-58
2020/12/15 06:01:51;;;;;;;11.27;7.83;;;;;;;;;;5088518;28;20021;-59
2020/12/15 06:04:20;;;;;;;14.33;8.20;;;;;;;;;;5092029;28;20638;-52
2020/12/15 06:06:46;;;;;;;10.67;7.87;;;;;;;;;;5091722;28;20028;-57
2020/12/15 06:09:15;;;;;;;11.53;7.90;;;;;;;;;;5088217;28;20027;-58
2020/12/15 06:11:41;;;;;;;9.27;6.23;;;;;;;;;;5092150;28;20035;-57
2020/12/15 06:14:10;;;;;;;11.97;7.27;;;;;;;;;;5091405;28;20028;-58
2020/12/15 06:16:35;;;;;;;11.17;7.80;;;;;;;;;;5091803;28;20020;-58
2020/12/15 06:19:01;;;;;;;10.03;6.93;;;;;;;;;;5084764;28;20023;-58
2020/12/15 06:21:26;;;;;;;11.30;8.47;;;;;;;;;;5092216;28;20023;-57
2020/12/15 06:23:59;;;;;;;11.40;7.60;;;;;;;;;;5091460;28;20044;-58
2020/12/15 06:26:28;;;;;;;13.70;8.32;;;;;;;;;;5091820;28;20035;-58
2020/12/15 06:28:57;;;;;;;9.70;6.93;;;;;;;;;;5087019;28;20366;-58
2020/12/15 06:31:22;;;;;;;11.93;8.17;;;;;;;;;;5092069;28;20378;-57
2020/12/15 06:33:53;;;;;;;10.83;7.83;;;;;;;;;;5092576;28;20035;-56
2020/12/15 06:36:28;;;;;;;11.40;7.53;;;;;;;;;;5095764;28;20523;-58
2020/12/15 06:38:53;;;;;;;11.30;7.82;;;;;;;;;;5091966;28;20024;-58
2020/12/15 06:41:19;;;;;;;10.90;7.80;;;;;;;;;;5095637;28;20471;-59
2020/12/15 06:43:45;;;;;;;12.25;8.13;;;;;;;;;;5095314;28;20016;-58
2020/12/15 06:46:11;;;;;;;12.73;8.60;;;;;;;;;;5095099;28;20370;-58
2020/12/15 06:48:36;;;;;;;12.77;7.97;;;;;;;;;;5081289;28;20016;-59
2020/12/15 06:51:02;;;;;;;11.52;8.35;;;;;;;;;;5094639;28;20028;-58
2020/12/15 06:53:27;;;;;;;13.13;8.75;;;;;;;;;;5095290;28;20020;-55
2020/12/15 06:55:59;;;;;;;13.43;8.60;;;;;;;;;;5083718;28;20467;-59
2020/12/15 06:58:24;;;;;;;13.50;9.02;;;;;;;;;;5078742;28;20310;-57
2020/12/15 07:00:49;;;;;;;11.65;8.27;;;;;;;;;;5095038;28;20012;-59
2020/12/15 07:03:16;;;;;;;10.75;7.75;;;;;;;;;;5094746;28;20016;-58
2020/12/15 07:05:41;;;;;;;14.77;8.98;;;;;;;;;;5095173;28;20043;-58
2020/12/15 07:08:11;;;;;;;12.73;8.00;;;;;;;;;;5092659;28;20479;-58
2020/12/15 07:10:43;;;;;;;13.60;8.73;;;;;;;;;;5094099;28;20048;-59
2020/12/15 07:13:11;;;;;;;12.30;7.95;;;;;;;;;;5095305;28;20028;-58
2020/12/15 07:15:36;;;;;;;12.55;9.05;;;;;;;;;;5094468;28;20023;-59
2020/12/15 07:18:02;;;;;;;12.40;8.38;;;;;;;;;;5089756;28;20016;-57
2020/12/15 07:20:28;;;;;;;13.82;8.88;;;;;;;;;;5092477;28;20016;-55
2020/12/15 07:22:53;;;;;;;12.57;9.20;;;;;;;;;;5094704;28;20119;-58
2020/12/15 07:25:20;;;;;;;14.57;8.95;;;;;;;;;;5095020;28;20048;-58
2020/12/15 07:27:45;;;;;;;14.32;8.70;;;;;;;;;;5094250;28;20035;-57
2020/12/15 07:30:12;;;;;;;12.48;8.52;;;;;;;;;;5091137;28;20479;-57
2020/12/15 07:32:39;;;;;;;15.27;9.48;;;;;;;;;;5094255;28;20068;-58
2020/12/15 07:35:06;;;;;;;11.10;7.82;;;;;;;;;;5094123;28;20487;-58
2020/12/15 07:37:34;;;;;;;12.18;8.50;;;;;;;;;;5093708;28;20016;-55
2020/12/15 07:40:04;;;;;;;12.40;8.73;;;;;;;;;;5091125;28;20509;-57
2020/12/15 07:42:29;;;;;;;12.23;8.43;;;;;;;;;;5091614;28;20125;-58
2020/12/15 07:44:55;;;;;;;16.33;8.15;;;;;;;;;;5093285;28;20127;-57
2020/12/15 07:47:20;;;;;;;12.07;7.53;;;;;;;;;;5094057;28;20542;-58
2020/12/15 07:49:50;;;;;;;10.10;6.75;;;;;;;;;;5091166;28;20020;-56
2020/12/15 07:52:26;;;;;;;12.98;8.75;;;;;;;;;;5093657;28;20352;-57
2020/12/15 07:54:58;;;;;;;10.10;8.20;;;;;;;;;;5094357;28;20164;-56
2020/12/15 07:57:23;;;;;;;12.35;8.02;;;;;;;;;;5093592;28;20099;-56
2020/12/15 07:59:49;;;;;;;11.52;7.07;;;;;;;;;;5090818;28;20107;-58
2020/12/15 08:02:17;;;;;;;11.68;8.23;;;;;;;;;;5093744;28;20043;-58
2020/12/15 08:04:43;;;;;;;11.20;7.50;;;;;;;;;;5093173;28;20012;-56
2020/12/15 08:07:10;;;;;;;10.68;7.10;;;;;;;;;;5093237;28;20406;-56
2020/12/15 08:09:36;;;;;;;10.63;7.97;;;;;;;;;;5091215;28;20020;-54
2020/12/15 08:12:03;;;;;;;10.73;7.80;;;;;;;;;;5088625;28;20095;-55
2020/12/15 08:14:28;;;;;;;11.35;7.50;;;;;;;;;;5086380;28;20028;-57
2020/12/15 08:16:53;;;;;;;11.13;8.15;;;;;;;;;;5094181;28;20546;-57
2020/12/15 08:19:23;;;;;;;12.38;8.32;;;;;;;;;;5083231;28;20062;-56
2020/12/15 08:21:50;;;;;;;11.40;8.07;;;;;;;;;;5093767;28;20020;-57
2020/12/15 08:24:18;;;;;;;11.20;7.65;;;;;;;;;;5093085;28;20036;-56
2020/12/15 08:26:44;;;;;;;10.13;7.38;;;;;;;;;;5093178;28;20153;-57
2020/12/15 08:29:10;;;;;;;10.60;7.20;;;;;;;;;;5090104;28;20027;-55
2020/12/15 08:31:37;;;;;;;10.20;7.15;;;;;;;;;;5085791;28;20027;-57
2020/12/15 08:34:08;;;;;;;10.25;7.63;;;;;;;;;;5083059;28;20065;-55
2020/12/15 08:36:40;;;;;;;10.07;7.65;;;;;;;;;;5093083;28;20098;-56
2020/12/15 08:39:06;;;;;;;8.85;6.38;;;;;;;;;;5090109;28;20043;-57
2020/12/15 08:41:32;;;;;;;10.75;6.80;;;;;;;;;;5093154;28;20475;-57
2020/12/15 08:43:57;;;;;;;8.18;6.10;;;;;;;;;;5092607;28;20020;-56
2020/12/15 08:46:22;;;;;;;9.32;6.85;;;;;;;;;;5093224;28;20024;-56
2020/12/15 08:48:48;;;;;;;9.73;6.45;;;;;;;;;;5090139;28;20020;-54
2020/12/15 08:51:14;;;;;;;8.43;5.93;;;;;;;;;;5092887;28;20023;-57
2020/12/15 08:53:40;;;;;;;13.35;5.70;;;;;;;;;;5091625;28;20028;-56
2020/12/15 08:56:11;;;;;;;7.28;5.75;;;;;;;;;;5092557;28;20035;-57
2020/12/15 08:58:36;;;;;;;7.93;4.53;;;;;;;;;;5089818;28;20583;-54
2020/12/15 09:01:02;;;;;;;7.25;5.20;;;;;;;;;;5092666;28;20039;-54
2020/12/15 09:03:27;;;;;;;10.45;5.80;;;;;;;;;;5084618;28;20173;-55
2020/12/15 09:05:52;;;;;;;6.95;4.90;;;;;;;;;;5084231;28;20026;-57
2020/12/15 09:08:18;;;;;;;6.72;4.63;;;;;;;;;;5088650;28;20520;-57
2020/12/15 09:10:43;;;;;;;6.70;4.72;;;;;;;;;;5092286;28;20024;-57
2020/12/15 09:13:08;;;;;;;7.82;5.43;;;;;;;;;;5092410;28;20020;-57
2020/12/15 09:15:44;;;;;;;7.03;5.15;;;;;;;;;;5092338;28;20028;-56
2020/12/15 09:18:10;;;;;;;7.90;5.70;;;;;;;;;;5090974;28;20024;-56
2020/12/15 09:20:35;;;;;;;9.68;5.40;;;;;;;;;;5091709;28;20062;-56
2020/12/15 09:23:00;;;;;;;8.35;5.75;;;;;;;;;;5091887;28;20130;-56
2020/12/15 09:25:25;;;;;;;7.40;5.32;;;;;;;;;;5092745;28;20096;-56
2020/12/15 09:27:50;;;;;;;7.07;4.65;;;;;;;;;;5092298;28;20462;-56
2020/12/15 09:30:18;;;;;;;7.75;5.18;;;;;;;;;;5084539;28;20275;-57
2020/12/15 09:32:43;;;;;;;8.13;5.63;;;;;;;;;;5075510;28;20029;-57
2020/12/15 09:35:09;;;;;;;9.05;5.95;;;;;;;;;;5072111;28;20021;-56
2020/12/15 09:37:35;;;;;;;8.50;6.32;;;;;;;;;;5089064;28;20016;-55
2020/12/15 09:40:01;;;;;;;8.52;5.80;;;;;;;;;;5089076;28;20030;-55
2020/12/15 09:42:27;;;;;;;11.68;6.38;;;;;;;;;;5092691;28;20047;-57
2020/12/15 09:44:52;;;;;;;10.65;6.78;;;;;;;;;;5092154;28;20471;-58
2020/12/15 09:47:17;;;;;;;9.45;7.38;;;;;;;;;;5092114;28;20023;-56
2020/12/15 09:49:42;;;;;;;9.63;7.25;;;;;;;;;;5083569;28;20024;-55
2020/12/15 09:52:08;;;;;;;9.63;6.40;;;;;;;;;;5075391;28;20021;-58
2020/12/15 09:54:33;;;;;;;10.45;6.28;;;;;;;;;;5074895;28;20026;-58
2020/12/15 09:56:59;;;;;;;11.43;6.75;;;;;;;;;;5091382;28;20459;-55
2020/12/15 09:59:24;;;;;;;9.45;6.45;;;;;;;;;;5088766;28;20047;-58
2020/12/15 10:01:49;;;;;;;11.57;6.53;;;;;;;;;;5091218;28;20355;-58
2020/12/15 10:04:15;;;;;;;8.95;6.80;;;;;;;;;;5091929;28;20028;-57
2020/12/15 10:06:40;;;;;;;10.02;6.38;;;;;;;;;;5089496;28;20039;-58
2020/12/15 10:09:05;;;;;;;9.13;7.03;;;;;;;;;;5081958;28;20028;-58
2020/12/15 10:11:30;;;;;;;8.70;6.97;;;;;;;;;;5094933;28;20414;-58
2020/12/15 10:13:56;;;;;;;8.38;6.30;;;;;;;;;;5095166;28;20027;-58
2020/12/15 10:16:21;;;;;;;7.95;6.18;;;;;;;;;;5092921;28;20482;-58
2020/12/15 10:18:47;;;;;;;8.68;5.90;;;;;;;;;;5092818;28;20043;-58
2020/12/15 10:21:15;;;;;;;7.68;6.03;;;;;;;;;;5095563;28;20055;-57
2020/12/15 10:23:40;;;;;;;8.63;5.93;;;;;;;;;;5095094;28;20123;-57
2020/12/15 10:26:06;;;;;;;7.63;5.47;;;;;;;;;;5091122;28;20160;-58
2020/12/15 10:28:31;;;;;;;9.75;5.82;;;;;;;;;;5087776;28;20060;-54
2020/12/15 10:30:57;;;;;;;10.70;6.63;;;;;;;;;;5091031;28;20103;-56
2020/12/15 10:33:22;;;;;;;9.60;6.88;;;;;;;;;;5095705;28;20027;-57
2020/12/15 10:35:48;;;;;;;9.82;5.97;;;;;;;;;;5095874;28;20474;-58
2020/12/15 10:38:13;;;;;;;8.98;6.45;;;;;;;;;;5092937;28;20012;-58
2020/12/15 10:40:39;;;;;;;7.90;5.90;;;;;;;;;;5095317;28;20020;-59
2020/12/15 10:43:04;;;;;;;7.90;6.15;;;;;;;;;;5095930;28;20020;-57
2020/12/15 10:45:30;;;;;;;8.65;6.18;;;;;;;;;;5095190;28;20528;-55
2020/12/15 10:47:55;;;;;;;7.28;5.60;;;;;;;;;;5095306;28;20400;-57
2020/12/15 10:50:20;;;;;;;7.60;6.50;;;;;;;;;;5091755;28;20360;-58
2020/12/15 10:52:45;;;;;;;9.05;6.88;;;;;;;;;;5090375;28;20024;-58
2020/12/15 10:55:11;;;;;;;7.95;5.75;;;;;;;;;;5094285;28;20466;-58
2020/12/15 10:57:36;;;;;;;8.90;5.93;;;;;;;;;;5094100;28;20028;-58
2020/12/15 11:00:05;;;;;;;7.07;5.30;;;;;;;;;;5092523;28;20024;-57
2020/12/15 11:02:30;;;;;;;7.53;5.60;;;;;;;;;;5095432;28;20020;-59
2020/12/15 11:04:56;;;;;;;6.82;5.70;;;;;;;;;;5095561;28;20152;-57
2020/12/15 11:07:21;;;;;;;8.93;5.57;;;;;;;;;;5094540;28;20028;-59
2020/12/15 11:09:46;;;;;;;6.40;5.55;;;;;;;;;;5092084;28;20024;-59
2020/12/15 11:12:11;;;;;;;7.75;5.40;;;;;;;;;;5082008;28;20386;-58
2020/12/15 11:14:36;;;;;;;7.10;4.03;;;;;;;;;;5091479;28;20379;-58
2020/12/15 11:17:02;;;;;;;5.10;4.10;;;;;;;;;;5094573;28;20016;-58
2020/12/15 11:19:27;;;;;;;5.28;4.78;;;;;;;;;;5090515;28;20552;-58
2020/12/15 11:21:52;;;;;;;7.38;4.32;;;;;;;;;;5094196;28;20031;-60
2020/12/15 11:24:18;;;;;;;7.78;4.05;;;;;;;;;;5091687;28;20170;-59
2020/12/15 11:26:43;;;;;;;4.75;3.55;;;;;;;;;;5092615;28;20031;-59
2020/12/15 11:29:09;;;;;;;5.28;3.95;;;;;;;;;;5091425;28;20048;-59
2020/12/15 11:31:35;;;;;;;5.60;3.85;;;;;;;;;;5085918;28;20580;-57
2020/12/15 11:34:00;;;;;;;7.93;4.63;;;;;;;;;;5094753;28;20466;-59
2020/12/15 11:36:27;;;;;;;9.98;5.80;;;;;;;;;;5113350;28;20460;-59
2020/12/15 11:38:53;;;;;;;7.60;5.32;;;;;;;;;;5091239;28;20020;-59
2020/12/15 11:41:18;;;;;;;6.55;4.55;;;;;;;;;;5093916;28;20463;-60
2020/12/15 11:43:43;;;;;;;8.73;6.10;;;;;;;;;;5094659;28;20016;-58
2020/12/15 11:46:09;;;;;;;8.48;5.70;;;;;;;;;;5094434;28;20044;-59
2020/12/15 11:48:34;;;;;;;8.50;5.95;;;;;;;;;;5088826;28;20009;-58
2020/12/15 11:50:59;;;;;;;8.10;6.20;;;;;;;;;;5092738;28;20054;-56
2020/12/15 11:53:24;;;;;;;8.38;5.55;;;;;;;;;;5093865;28;20031;-58
2020/12/15 11:55:50;;;;;;;9.02;6.00;;;;;;;;;;5100033;28;20027;-58
2020/12/15 11:58:15;;;;;;;9.45;6.18;;;;;;;;;;5095742;28;20406;-60
2020/12/15 12:00:40;;;;;;;13.63;7.13;;;;;;;;;;5092249;28;20020;-59
2020/12/15 12:03:06;;;;;;;9.25;7.70;;;;;;;;;;5093815;28;20076;-58
2020/12/15 12:05:31;;;;;;;11.05;8.40;;;;;;;;;;5092550;28;20008;-59
2020/12/15 12:07:56;;;;;;;10.52;8.02;;;;;;;;;;5087257;28;20101;-59
2020/12/15 12:10:21;;;;;;;10.07;8.02;;;;;;;;;;5091715;28;20016;-59
2020/12/15 12:12:47;;;;;;;10.98;7.75;;;;;;;;;;5098339;28;20027;-59
2020/12/15 12:15:12;;;;;;;10.50;8.23;;;;;;;;;;5094992;28;20082;-60
2020/12/15 12:17:37;;;;;;;10.32;7.72;;;;;;;;;;5092061;28;20445;-60
2020/12/15 12:20:03;;;;;;;11.40;8.43;;;;;;;;;;5082731;28;20455;-58
2020/12/15 12:22:28;;;;;;;10.05;8.00;;;;;;;;;;5092945;28;20099;-59
2020/12/15 12:24:53;;;;;;;10.95;9.05;;;;;;;;;;5092609;28;20040;-56
2020/12/15 12:27:19;;;;;;;12.25;8.82;;;;;;;;;;5091503;28;20036;-58
2020/12/15 12:29:44;;;;;;;11.00;8.60;;;;;;;;;;5090115;28;20042;-55
2020/12/15 12:32:09;;;;;;;10.77;8.40;;;;;;;;;;5090623;28;20035;-58
2020/12/15 12:34:34;;;;;;;14.13;9.50;;;;;;;;;;5091549;28;20016;-57
2020/12/15 12:37:01;;;;;;;11.13;8.20;;;;;;;;;;5092899;28;20024;-59
2020/12/15 12:39:26;;;;;;;13.38;8.95;;;;;;;;;;5089624;28;20020;-58
2020/12/15 12:41:52;;;;;;;14.45;9.48;;;;;;;;;;5089209;28;20041;-57
2020/12/15 12:44:18;;;;;;;14.38;9.07;;;;;;;;;;5082162;28;20084;-58
2020/12/15 12:46:46;;;;;;;11.65;8.18;;;;;;;;;;5087922;28;20020;-56
2020/12/15 12:49:12;;;;;;;13.05;9.55;;;;;;;;;;5078996;28;20166;-57
2020/12/15 12:51:38;;;;;;;11.75;9.00;;;;;;;;;;5085846;28;20115;-57
2020/12/15 12:54:04;;;;;;;13.00;9.77;;;;;;;;;;5088868;28;20057;-56
2020/12/15 12:56:29;;;;;;;12.50;9.25;;;;;;;;;;5089737;28;20024;-58
2020/12/15 12:58:55;;;;;;;12.38;9.70;;;;;;;;;;5082361;28;20465;-59
2020/12/15 13:01:21;;;;;;;12.90;9.55;;;;;;;;;;5082816;28;20035;-58
2020/12/15 13:03:46;;;;;;;13.23;8.88;;;;;;;;;;5087967;28;20031;-56
2020/12/15 13:06:12;;;;;;;11.85;9.15;;;;;;;;;;5088859;28;20017;-54
2020/12/15 13:08:37;;;;;;;17.73;11.63;;;;;;;;;;5079139;28;20031;-57
2020/12/15 13:11:02;;;;;;;21.80;14.85;;;;;;;;;;5082887;28;20031;-59
2020/12/15 13:13:27;;;;;;;14.38;11.48;;;;;;;;;;5088318;28;20031;-59
2020/12/15 13:15:53;;;;;;;13.80;9.43;;;;;;;;;;5084244;28;20016;-57
2020/12/15 13:18:18;;;;;;;13.18;9.35;;;;;;;;;;5081575;28;20238;-58
2020/12/15 13:20:43;;;;;;;13.63;9.73;;;;;;;;;;5085558;28;20605;-58
2020/12/15 13:23:08;;;;;;;13.43;9.77;;;;;;;;;;5085958;28;20028;-58
2020/12/15 13:25:33;;;;;;;11.95;9.40;;;;;;;;;;5086142;28;20070;-59
2020/12/15 13:27:59;;;;;;;13.05;9.60;;;;;;;;;;5087591;28;20024;-59
2020/12/15 13:30:24;;;;;;;12.45;9.98;;;;;;;;;;5085586;28;20095;-58
2020/12/15 13:32:49;;;;;;;12.45;9.63;;;;;;;;;;5092357;28;20070;-59
2020/12/15 13:35:14;;;;;;;14.50;10.50;;;;;;;;;;5091930;28;20016;-58
2020/12/15 13:37:40;;;;;;;13.82;9.77;;;;;;;;;;5089208;28;20027;-58
2020/12/15 13:40:05;;;;;;;10.65;8.55;;;;;;;;;;5088936;28;20016;-57
2020/12/15 13:42:31;;;;;;;11.57;9.13;;;;;;;;;;5091974;28;20431;-57
2020/12/15 13:44:56;;;;;;;13.48;8.75;;;;;;;;;;5089931;28;20039;-58
2020/12/15 13:47:21;;;;;;;11.95;9.60;;;;;;;;;;5083259;28;20059;-57
2020/12/15 13:49:50;;;;;;;11.25;9.20;;;;;;;;;;5080251;28;20073;-58
2020/12/15 13:52:15;;;;;;;12.82;10.07;;;;;;;;;;5091418;28;20449;-58
2020/12/15 13:54:40;;;;;;;12.63;9.88;;;;;;;;;;5084252;28;20062;-58
2020/12/15 13:57:05;;;;;;;14.77;9.65;;;;;;;;;;5090123;28;20327;-58
2020/12/15 13:59:31;;;;;;;11.95;9.35;;;;;;;;;;5081990;28;20021;-58
2020/12/15 14:01:56;;;;;;;12.90;8.88;;;;;;;;;;5086139;28;20379;-58
2020/12/15 14:04:21;;;;;;;13.23;9.57;;;;;;;;;;5092479;28;20146;-58
2020/12/15 14:06:46;;;;;;;13.35;9.32;;;;;;;;;;5074792;28;20085;-58
2020/12/15 14:09:12;;;;;;;12.77;9.85;;;;;;;;;;5068599;28;20043;-57
2020/12/15 14:11:38;;;;;;;14.57;9.52;;;;;;;;;;5081801;28;20087;-58
2020/12/15 14:14:03;;;;;;;11.93;9.00;;;;;;;;;;5087986;28;20032;-57
2020/12/15 14:16:29;;;;;;;12.40;8.80;;;;;;;;;;5092538;28;20020;-59
2020/12/15 14:18:54;;;;;;;13.98;9.60;;;;;;;;;;5084506;28;20383;-53
2020/12/15 14:21:19;;;;;;;13.00;8.57;;;;;;;;;;5092239;28;20462;-58
2020/12/15 14:23:44;;;;;;;12.32;9.32;;;;;;;;;;5091610;28;20036;-56
2020/12/15 14:26:10;;;;;;;11.85;8.57;;;;;;;;;;5089519;28;20034;-59
2020/12/15 14:28:36;;;;;;;11.63;7.95;;;;;;;;;;5076657;28;20471;-58